sensor_id;sensor_type;location;lat;lon;timestamp;temperature;humidity
10149;DHT22;5115;50.920;6.376;2022-11-11T00:12:11;9.00;99.90
10149;DHT22;5115;50.920;6.376;2022-11-11T00:14:37;8.90;99.90
10149;DHT22;5115;50.920;6.376;2022-11-11T00:17:03;9.00;99.90
10149;DHT22;5115;50.920;6.376;2022-11-11T00:22:31;9.10;99.90
10149;DHT22;5115;50.920;6.376;2022-11-11T00:25:16;9.20;99.90
10149;DHT22;5115;50.920;6.376;2022-11-11T00:27:42;9.20;99.90
10149;DHT22;5115;50.920;6.376;2022-11-11T00:30:08;9.20;99.90
10149;DHT22;5115;50.920;6.376;2022-11-11T00:37:46;9.20;99.90
10149;DHT22;5115;50.920;6.376;2022-11-11T00:40:14;9.10;99.90
10149;DHT22;5115;50.920;6.376;2022-11-11T00:42:39;9.00;99.90
10149;DHT22;5115;50.920;6.376;2022-11-11T00:45:05;9.10;99.90
10149;DHT22;5115;50.920;6.376;2022-11-11T00:50:19;7.20;99.90
10149;DHT22;5115;50.920;6.376;2022-11-11T00:53:08;9.20;99.90
10149;DHT22;5115;50.920;6.376;2022-11-11T01:00:26;9.10;99.90
10149;DHT22;5115;50.920;6.376;2022-11-11T01:15:01;9.00;99.90
10149;DHT22;5115;50.920;6.376;2022-11-11T01:17:28;9.00;99.90
10149;DHT22;5115;50.920;6.376;2022-11-11T01:19:53;9.00;99.90
10149;DHT22;5115;50.920;6.376;2022-11-11T01:22:19;9.00;99.90
10149;DHT22;5115;50.920;6.376;2022-11-11T01:24:45;8.90;99.90
10149;DHT22;5115;50.920;6.376;2022-11-11T01:36:55;8.90;99.90
10149;DHT22;5115;50.920;6.376;2022-11-11T01:52:25;8.70;99.90
10149;DHT22;5115;50.920;6.376;2022-11-11T01:54:58;8.60;99.90
10149;DHT22;5115;50.920;6.376;2022-11-11T01:59:54;8.60;99.90
10149;DHT22;5115;50.920;6.376;2022-11-11T02:03:04;8.50;99.90
10149;DHT22;5115;50.920;6.376;2022-11-11T02:05:31;8.50;99.90
10149;DHT22;5115;50.920;6.376;2022-11-11T02:08:18;8.50;99.90
10149;DHT22;5115;50.920;6.376;2022-11-11T02:11:13;8.40;99.90
10149;DHT22;5115;50.920;6.376;2022-11-11T02:13:41;8.50;99.90
10149;DHT22;5115;50.920;6.376;2022-11-11T02:16:27;8.40;99.90
10149;DHT22;5115;50.920;6.376;2022-11-11T02:18:53;8.40;99.90
10149;DHT22;5115;50.920;6.376;2022-11-11T02:21:24;8.50;99.90
10149;DHT22;5115;50.920;6.376;2022-11-11T02:24:21;8.50;99.90
10149;DHT22;5115;50.920;6.376;2022-11-11T02:29:17;8.20;99.90
10149;DHT22;5115;50.920;6.376;2022-11-11T02:31:43;8.20;99.90
10149;DHT22;5115;50.920;6.376;2022-11-11T02:36:36;8.10;99.90
10149;DHT22;5115;50.920;6.376;2022-11-11T02:39:02;8.20;99.90
10149;DHT22;5115;50.920;6.376;2022-11-11T02:41:28;8.10;99.90
10149;DHT22;5115;50.920;6.376;2022-11-11T02:44:12;8.00;99.90
10149;DHT22;5115;50.920;6.376;2022-11-11T02:56:24;8.00;99.90
10149;DHT22;5115;50.920;6.376;2022-11-11T03:11:18;8.00;99.90
10149;DHT22;5115;50.920;6.376;2022-11-11T03:13:59;7.80;99.90
10149;DHT22;5115;50.920;6.376;2022-11-11T03:16:25;7.80;99.90
10149;DHT22;5115;50.920;6.376;2022-11-11T03:21:38;7.90;99.90
10149;DHT22;5115;50.920;6.376;2022-11-11T03:24:04;7.90;99.90
10149;DHT22;5115;50.920;6.376;2022-11-11T03:26:29;8.00;99.90
10149;DHT22;5115;50.920;6.376;2022-11-11T03:33:47;7.90;99.90
10149;DHT22;5115;50.920;6.376;2022-11-11T03:38:39;7.90;99.90
10149;DHT22;5115;50.920;6.376;2022-11-11T03:41:05;7.80;99.90
10149;DHT22;5115;50.920;6.376;2022-11-11T03:43:32;7.80;99.90
10149;DHT22;5115;50.920;6.376;2022-11-11T03:46:00;7.80;99.90
10149;DHT22;5115;50.920;6.376;2022-11-11T03:48:28;7.80;99.90
10149;DHT22;5115;50.920;6.376;2022-11-11T03:50:53;7.80;99.90
10149;DHT22;5115;50.920;6.376;2022-11-11T03:53:20;7.70;99.90
10149;DHT22;5115;50.920;6.376;2022-11-11T04:00:38;7.80;99.90
10149;DHT22;5115;50.920;6.376;2022-11-11T04:03:18;7.70;99.90
10149;DHT22;5115;50.920;6.376;2022-11-11T04:06:03;7.70;99.90
10149;DHT22;5115;50.920;6.376;2022-11-11T04:08:58;7.70;99.90
10149;DHT22;5115;50.920;6.376;2022-11-11T04:11:43;7.60;99.90
10149;DHT22;5115;50.920;6.376;2022-11-11T04:14:12;7.50;99.90
10149;DHT22;5115;50.920;6.376;2022-11-11T04:16:57;7.50;99.90
10149;DHT22;5115;50.920;6.376;2022-11-11T04:22:07;7.40;99.90
10149;DHT22;5115;50.920;6.376;2022-11-11T04:27:18;7.40;99.90
10149;DHT22;5115;50.920;6.376;2022-11-11T04:29:44;7.40;99.90
10149;DHT22;5115;50.920;6.376;2022-11-11T04:32:14;7.30;99.90
10149;DHT22;5115;50.920;6.376;2022-11-11T04:35:09;7.30;99.90
10149;DHT22;5115;50.920;6.376;2022-11-11T04:37:36;7.30;99.90
10149;DHT22;5115;50.920;6.376;2022-11-11T04:40:08;7.30;99.90
10149;DHT22;5115;50.920;6.376;2022-11-11T04:45:19;7.50;99.90
10149;DHT22;5115;50.920;6.376;2022-11-11T04:50:25;7.50;99.90
10149;DHT22;5115;50.920;6.376;2022-11-11T05:00:28;7.50;99.90
10149;DHT22;5115;50.920;6.376;2022-11-11T05:02:54;7.60;99.90
10149;DHT22;5115;50.920;6.376;2022-11-11T05:11:08;7.80;99.90
10149;DHT22;5115;50.920;6.376;2022-11-11T05:13:34;7.90;99.90
10149;DHT22;5115;50.920;6.376;2022-11-11T05:16:21;7.90;99.90
10149;DHT22;5115;50.920;6.376;2022-11-11T05:19:09;8.00;99.90
10149;DHT22;5115;50.920;6.376;2022-11-11T05:21:56;8.00;99.90
10149;DHT22;5115;50.920;6.376;2022-11-11T05:29:32;8.00;99.90
10149;DHT22;5115;50.920;6.376;2022-11-11T05:34:24;8.10;99.90
10149;DHT22;5115;50.920;6.376;2022-11-11T06:20:53;8.10;99.90
10149;DHT22;5115;50.920;6.376;2022-11-11T06:23:19;8.00;99.90
10149;DHT22;5115;50.920;6.376;2022-11-11T06:40:41;8.20;99.90
10149;DHT22;5115;50.920;6.376;2022-11-11T06:45:33;8.10;99.90
10149;DHT22;5115;50.920;6.376;2022-11-11T06:52:54;8.30;99.90
10149;DHT22;5115;50.920;6.376;2022-11-11T06:55:19;8.40;99.90
10149;DHT22;5115;50.920;6.376;2022-11-11T07:00:12;8.30;99.90
10149;DHT22;5115;50.920;6.376;2022-11-11T07:02:37;8.40;99.90
10149;DHT22;5115;50.920;6.376;2022-11-11T07:05:03;8.40;99.90
10149;DHT22;5115;50.920;6.376;2022-11-11T07:07:29;8.50;99.90
10149;DHT22;5115;50.920;6.376;2022-11-11T07:24:31;9.30;99.90
10149;DHT22;5115;50.920;6.376;2022-11-11T07:26:56;9.30;99.90
10149;DHT22;5115;50.920;6.376;2022-11-11T07:29:23;9.40;99.90
10149;DHT22;5115;50.920;6.376;2022-11-11T07:31:49;9.50;99.90
10149;DHT22;5115;50.920;6.376;2022-11-11T07:36:41;9.60;99.90
10149;DHT22;5115;50.920;6.376;2022-11-11T07:39:07;9.70;99.90
10149;DHT22;5115;50.920;6.376;2022-11-11T07:41:32;9.90;99.90
10149;DHT22;5115;50.920;6.376;2022-11-11T07:43:58;10.10;99.90
10149;DHT22;5115;50.920;6.376;2022-11-11T07:46:24;10.30;99.90
10149;DHT22;5115;50.920;6.376;2022-11-11T07:48:49;10.60;99.90
10149;DHT22;5115;50.920;6.376;2022-11-11T07:51:15;10.80;99.90
10149;DHT22;5115;50.920;6.376;2022-11-11T07:53:40;10.90;99.90
10149;DHT22;5115;50.920;6.376;2022-11-11T07:56:06;11.10;99.90
10149;DHT22;5115;50.920;6.376;2022-11-11T07:58:32;11.30;99.90
10149;DHT22;5115;50.920;6.376;2022-11-11T08:01:00;11.40;99.90
10149;DHT22;5115;50.920;6.376;2022-11-11T08:03:26;11.70;99.90
10149;DHT22;5115;50.920;6.376;2022-11-11T08:05:54;11.90;99.90
10149;DHT22;5115;50.920;6.376;2022-11-11T08:08:20;12.20;99.90
10149;DHT22;5115;50.920;6.376;2022-11-11T08:10:52;12.20;99.90
10149;DHT22;5115;50.920;6.376;2022-11-11T08:13:18;12.40;99.90
10149;DHT22;5115;50.920;6.376;2022-11-11T08:18:34;12.60;99.90
10149;DHT22;5115;50.920;6.376;2022-11-11T08:21:00;12.60;99.90
10149;DHT22;5115;50.920;6.376;2022-11-11T08:23:26;12.60;99.90
10149;DHT22;5115;50.920;6.376;2022-11-11T08:26:03;12.60;99.90
10149;DHT22;5115;50.920;6.376;2022-11-11T08:28:30;12.50;99.90
10149;DHT22;5115;50.920;6.376;2022-11-11T08:31:00;12.80;99.90
10149;DHT22;5115;50.920;6.376;2022-11-11T08:33:27;12.80;99.90
10149;DHT22;5115;50.920;6.376;2022-11-11T08:35:54;12.90;99.90
10149;DHT22;5115;50.920;6.376;2022-11-11T08:38:22;12.80;99.90
10149;DHT22;5115;50.920;6.376;2022-11-11T08:40:48;12.80;99.90
10149;DHT22;5115;50.920;6.376;2022-11-11T08:43:14;13.00;99.90
10149;DHT22;5115;50.920;6.376;2022-11-11T08:45:40;13.10;99.90
10149;DHT22;5115;50.920;6.376;2022-11-11T08:48:07;13.30;99.90
10149;DHT22;5115;50.920;6.376;2022-11-11T08:50:35;13.50;99.90
10149;DHT22;5115;50.920;6.376;2022-11-11T08:53:01;13.80;99.90
10149;DHT22;5115;50.920;6.376;2022-11-11T08:55:26;13.90;99.90
10149;DHT22;5115;50.920;6.376;2022-11-11T08:58:00;14.00;99.90
10149;DHT22;5115;50.920;6.376;2022-11-11T09:00:26;10.90;99.90
10149;DHT22;5115;50.920;6.376;2022-11-11T09:02:52;14.00;99.90
10149;DHT22;5115;50.920;6.376;2022-11-11T09:05:18;14.10;99.90
10149;DHT22;5115;50.920;6.376;2022-11-11T09:07:43;14.30;99.90
10149;DHT22;5115;50.920;6.376;2022-11-11T09:10:09;17.60;99.90
10149;DHT22;5115;50.920;6.376;2022-11-11T09:12:35;14.50;99.90
10149;DHT22;5115;50.920;6.376;2022-11-11T09:15:00;14.50;99.90
10149;DHT22;5115;50.920;6.376;2022-11-11T09:17:26;14.50;99.90
10149;DHT22;5115;50.920;6.376;2022-11-11T09:19:52;14.60;99.90
10149;DHT22;5115;50.920;6.376;2022-11-11T09:22:17;14.70;99.90
10149;DHT22;5115;50.920;6.376;2022-11-11T09:24:43;14.90;99.90
10149;DHT22;5115;50.920;6.376;2022-11-11T09:27:09;14.80;99.90
10149;DHT22;5115;50.920;6.376;2022-11-11T09:29:35;15.10;99.90
10149;DHT22;5115;50.920;6.376;2022-11-11T09:32:01;15.20;99.90
10149;DHT22;5115;50.920;6.376;2022-11-11T09:34:27;15.20;99.90
10149;DHT22;5115;50.920;6.376;2022-11-11T09:36:52;15.80;99.90
10149;DHT22;5115;50.920;6.376;2022-11-11T09:39:18;15.80;99.90
10149;DHT22;5115;50.920;6.376;2022-11-11T09:42:05;15.60;99.90
10149;DHT22;5115;50.920;6.376;2022-11-11T09:44:41;15.90;99.90
10149;DHT22;5115;50.920;6.376;2022-11-11T09:47:41;16.40;99.90
10149;DHT22;5115;50.920;6.376;2022-11-11T09:50:13;16.50;99.90
10149;DHT22;5115;50.920;6.376;2022-11-11T09:55:42;17.60;99.90
10149;DHT22;5115;50.920;6.376;2022-11-11T09:58:19;17.50;99.90
10149;DHT22;5115;50.920;6.376;2022-11-11T10:00:50;17.90;99.90
10149;DHT22;5115;50.920;6.376;2022-11-11T10:03:21;18.00;99.90
10149;DHT22;5115;50.920;6.376;2022-11-11T10:06:19;18.00;99.90
10149;DHT22;5115;50.920;6.376;2022-11-11T10:08:58;18.40;99.90
10149;DHT22;5115;50.920;6.376;2022-11-11T10:14:12;18.80;99.90
10149;DHT22;5115;50.920;6.376;2022-11-11T10:20:09;18.90;99.90
10149;DHT22;5115;50.920;6.376;2022-11-11T10:22:37;18.90;99.90
10149;DHT22;5115;50.920;6.376;2022-11-11T10:27:43;18.20;99.90
10149;DHT22;5115;50.920;6.376;2022-11-11T10:30:29;17.80;99.90
10149;DHT22;5115;50.920;6.376;2022-11-11T10:33:01;17.70;99.90
10149;DHT22;5115;50.920;6.376;2022-11-11T10:35:29;17.50;99.90
10149;DHT22;5115;50.920;6.376;2022-11-11T10:40:48;17.10;99.90
10149;DHT22;5115;50.920;6.376;2022-11-11T10:43:32;16.30;99.90
10149;DHT22;5115;50.920;6.376;2022-11-11T10:46:22;16.60;99.90
10149;DHT22;5115;50.920;6.376;2022-11-11T10:48:59;16.80;99.90
10149;DHT22;5115;50.920;6.376;2022-11-11T10:51:30;17.20;99.90
10149;DHT22;5115;50.920;6.376;2022-11-11T10:54:28;17.20;99.90
10149;DHT22;5115;50.920;6.376;2022-11-11T10:59:49;17.00;99.90
10149;DHT22;5115;50.920;6.376;2022-11-11T11:02:25;16.60;99.90
10149;DHT22;5115;50.920;6.376;2022-11-11T11:05:00;16.70;99.90
10149;DHT22;5115;50.920;6.376;2022-11-11T11:07:36;16.70;99.90
10149;DHT22;5115;50.920;6.376;2022-11-11T11:10:16;16.50;99.90
10149;DHT22;5115;50.920;6.376;2022-11-11T11:13:11;16.40;99.90
10149;DHT22;5115;50.920;6.376;2022-11-11T11:15:41;16.70;99.90
10149;DHT22;5115;50.920;6.376;2022-11-11T11:18:14;16.70;99.90
10149;DHT22;5115;50.920;6.376;2022-11-11T11:21:09;16.70;99.90
10149;DHT22;5115;50.920;6.376;2022-11-11T11:23:41;18.60;99.90
10149;DHT22;5115;50.920;6.376;2022-11-11T11:26:08;16.30;99.90
10149;DHT22;5115;50.920;6.376;2022-11-11T11:28:35;16.10;99.90
10149;DHT22;5115;50.920;6.376;2022-11-11T11:31:16;16.30;99.90
10149;DHT22;5115;50.920;6.376;2022-11-11T11:33:53;16.60;99.90
10149;DHT22;5115;50.920;6.376;2022-11-11T11:36:19;16.60;99.90
10149;DHT22;5115;50.920;6.376;2022-11-11T11:38:48;16.60;99.90
10149;DHT22;5115;50.920;6.376;2022-11-11T11:41:17;16.50;99.90
10149;DHT22;5115;50.920;6.376;2022-11-11T11:43:59;16.50;99.90
10149;DHT22;5115;50.920;6.376;2022-11-11T11:46:34;16.40;99.90
10149;DHT22;5115;50.920;6.376;2022-11-11T11:49:24;16.60;99.90
10149;DHT22;5115;50.920;6.376;2022-11-11T11:52:10;16.80;99.90
10149;DHT22;5115;50.920;6.376;2022-11-11T11:55:03;16.80;99.90
10149;DHT22;5115;50.920;6.376;2022-11-11T12:05:58;16.60;99.90
10149;DHT22;5115;50.920;6.376;2022-11-11T12:17:28;16.80;99.90
10149;DHT22;5115;50.920;6.376;2022-11-11T12:22:58;19.90;99.90
10149;DHT22;5115;50.920;6.376;2022-11-11T12:36:35;16.50;99.90
10149;DHT22;5115;50.920;6.376;2022-11-11T12:42:16;16.20;99.90
10149;DHT22;5115;50.920;6.376;2022-11-11T13:04:24;16.20;99.90
10149;DHT22;5115;50.920;6.376;2022-11-11T13:13:06;16.00;99.90
10149;DHT22;5115;50.920;6.376;2022-11-11T13:15:36;15.90;99.90
10149;DHT22;5115;50.920;6.376;2022-11-11T13:18:14;15.90;99.90
10149;DHT22;5115;50.920;6.376;2022-11-11T13:20:56;15.90;99.90
10149;DHT22;5115;50.920;6.376;2022-11-11T13:23:22;15.90;99.90
10149;DHT22;5115;50.920;6.376;2022-11-11T13:25:54;15.90;99.90
10149;DHT22;5115;50.920;6.376;2022-11-11T13:28:26;15.90;99.90
10149;DHT22;5115;50.920;6.376;2022-11-11T13:33:43;16.00;99.90
10149;DHT22;5115;50.920;6.376;2022-11-11T13:36:14;16.00;99.90
10149;DHT22;5115;50.920;6.376;2022-11-11T13:38:54;15.80;99.90
10149;DHT22;5115;50.920;6.376;2022-11-11T13:41:28;15.80;99.90
10149;DHT22;5115;50.920;6.376;2022-11-11T13:43:58;15.80;99.90
10149;DHT22;5115;50.920;6.376;2022-11-11T13:46:32;15.80;99.90
10149;DHT22;5115;50.920;6.376;2022-11-11T13:48:59;15.90;99.90
10149;DHT22;5115;50.920;6.376;2022-11-11T13:51:38;15.90;99.90
10149;DHT22;5115;50.920;6.376;2022-11-11T13:54:19;15.90;99.90
10149;DHT22;5115;50.920;6.376;2022-11-11T13:56:46;15.90;99.90
10149;DHT22;5115;50.920;6.376;2022-11-11T13:59:30;15.90;99.90
10149;DHT22;5115;50.920;6.376;2022-11-11T14:12:48;14.40;99.90
10149;DHT22;5115;50.920;6.376;2022-11-11T14:15:46;16.00;99.90
10149;DHT22;5115;50.920;6.376;2022-11-11T14:20:44;15.70;99.90
10149;DHT22;5115;50.920;6.376;2022-11-11T14:25:47;15.80;99.90
10149;DHT22;5115;50.920;6.376;2022-11-11T14:30:52;15.70;99.90
10149;DHT22;5115;50.920;6.376;2022-11-11T14:33:39;15.70;99.90
10149;DHT22;5115;50.920;6.376;2022-11-11T14:36:16;15.60;99.90
10149;DHT22;5115;50.920;6.376;2022-11-11T14:38:49;15.60;99.90
10149;DHT22;5115;50.920;6.376;2022-11-11T14:49:54;15.50;99.90
10149;DHT22;5115;50.920;6.376;2022-11-11T14:52:36;15.40;99.90
10149;DHT22;5115;50.920;6.376;2022-11-11T14:55:25;15.30;99.90
10149;DHT22;5115;50.920;6.376;2022-11-11T14:58:47;15.40;99.90
10149;DHT22;5115;50.920;6.376;2022-11-11T15:01:15;15.30;99.90
10149;DHT22;5115;50.920;6.376;2022-11-11T15:03:43;15.30;99.90
10149;DHT22;5115;50.920;6.376;2022-11-11T15:11:38;15.10;99.90
10149;DHT22;5115;50.920;6.376;2022-11-11T15:14:47;15.10;99.90
10149;DHT22;5115;50.920;6.376;2022-11-11T15:28:33;14.70;99.90
10149;DHT22;5115;50.920;6.376;2022-11-11T15:36:44;14.60;99.90
10149;DHT22;5115;50.920;6.376;2022-11-11T15:39:18;14.60;99.90
10149;DHT22;5115;50.920;6.376;2022-11-11T15:41:47;14.50;99.90
10149;DHT22;5115;50.920;6.376;2022-11-11T15:46:48;14.40;99.90
10149;DHT22;5115;50.920;6.376;2022-11-11T15:49:48;14.40;99.90
10149;DHT22;5115;50.920;6.376;2022-11-11T15:52:27;14.30;99.90
10149;DHT22;5115;50.920;6.376;2022-11-11T15:54:53;14.20;99.90
10149;DHT22;5115;50.920;6.376;2022-11-11T15:57:30;14.10;99.90
10149;DHT22;5115;50.920;6.376;2022-11-11T16:00:00;14.00;99.90
10149;DHT22;5115;50.920;6.376;2022-11-11T16:02:29;14.00;99.90
10149;DHT22;5115;50.920;6.376;2022-11-11T16:04:56;13.90;99.90
10149;DHT22;5115;50.920;6.376;2022-11-11T16:07:26;13.90;99.90
10149;DHT22;5115;50.920;6.376;2022-11-11T16:09:54;13.90;99.90
10149;DHT22;5115;50.920;6.376;2022-11-11T16:12:31;13.90;99.90
10149;DHT22;5115;50.920;6.376;2022-11-11T16:14:59;13.80;99.90
10149;DHT22;5115;50.920;6.376;2022-11-11T16:17:29;13.70;99.90
10149;DHT22;5115;50.920;6.376;2022-11-11T16:19:56;13.80;99.90
10149;DHT22;5115;50.920;6.376;2022-11-11T16:22:28;13.70;99.90
10149;DHT22;5115;50.920;6.376;2022-11-11T16:24:57;13.70;99.90
10149;DHT22;5115;50.920;6.376;2022-11-11T16:27:30;13.60;99.90
10149;DHT22;5115;50.920;6.376;2022-11-11T16:30:17;13.50;99.90
10149;DHT22;5115;50.920;6.376;2022-11-11T16:32:43;13.50;99.90
10149;DHT22;5115;50.920;6.376;2022-11-11T16:37:56;13.40;99.90
10149;DHT22;5115;50.920;6.376;2022-11-11T16:43:22;13.20;99.90
10149;DHT22;5115;50.920;6.376;2022-11-11T16:46:05;13.20;99.90
10149;DHT22;5115;50.920;6.376;2022-11-11T16:51:22;13.10;99.90
10149;DHT22;5115;50.920;6.376;2022-11-11T16:54:02;13.10;99.90
10149;DHT22;5115;50.920;6.376;2022-11-11T16:56:31;13.10;99.90
10149;DHT22;5115;50.920;6.376;2022-11-11T16:59:15;13.00;99.90
10149;DHT22;5115;50.920;6.376;2022-11-11T17:01:43;13.00;99.90
10149;DHT22;5115;50.920;6.376;2022-11-11T17:04:09;12.90;99.90
10149;DHT22;5115;50.920;6.376;2022-11-11T17:06:56;12.90;99.90
10149;DHT22;5115;50.920;6.376;2022-11-11T17:09:36;12.90;99.90
10149;DHT22;5115;50.920;6.376;2022-11-11T17:12:02;12.70;99.90
10149;DHT22;5115;50.920;6.376;2022-11-11T17:14:30;12.70;99.90
10149;DHT22;5115;50.920;6.376;2022-11-11T17:16:58;12.60;99.90
10149;DHT22;5115;50.920;6.376;2022-11-11T17:19:24;12.50;99.90
10149;DHT22;5115;50.920;6.376;2022-11-11T17:21:49;12.50;99.90
10149;DHT22;5115;50.920;6.376;2022-11-11T17:24:15;12.50;99.90
10149;DHT22;5115;50.920;6.376;2022-11-11T17:26:41;12.40;99.90
10149;DHT22;5115;50.920;6.376;2022-11-11T17:29:06;12.30;99.90
10149;DHT22;5115;50.920;6.376;2022-11-11T17:31:35;12.30;99.90
10149;DHT22;5115;50.920;6.376;2022-11-11T17:34:07;12.20;99.90
10149;DHT22;5115;50.920;6.376;2022-11-11T17:36:33;12.20;99.90
10149;DHT22;5115;50.920;6.376;2022-11-11T17:38:59;12.10;99.90
10149;DHT22;5115;50.920;6.376;2022-11-11T17:41:25;12.10;99.90
10149;DHT22;5115;50.920;6.376;2022-11-11T17:43:50;12.00;99.90
10149;DHT22;5115;50.920;6.376;2022-11-11T17:46:16;11.90;99.90
10149;DHT22;5115;50.920;6.376;2022-11-11T17:48:41;11.90;99.90
10149;DHT22;5115;50.920;6.376;2022-11-11T17:51:07;11.90;99.90
10149;DHT22;5115;50.920;6.376;2022-11-11T17:53:34;11.80;99.90
10149;DHT22;5115;50.920;6.376;2022-11-11T17:56:02;11.70;99.90
10149;DHT22;5115;50.920;6.376;2022-11-11T17:58:28;11.60;99.90
10149;DHT22;5115;50.920;6.376;2022-11-11T18:00:53;11.50;99.90
10149;DHT22;5115;50.920;6.376;2022-11-11T18:03:19;11.40;99.90
10149;DHT22;5115;50.920;6.376;2022-11-11T18:05:44;11.30;99.90
10149;DHT22;5115;50.920;6.376;2022-11-11T18:08:10;11.20;99.90
10149;DHT22;5115;50.920;6.376;2022-11-11T18:10:36;11.20;99.90
10149;DHT22;5115;50.920;6.376;2022-11-11T18:13:01;11.20;99.90
10149;DHT22;5115;50.920;6.376;2022-11-11T18:15:27;11.20;99.90
10149;DHT22;5115;50.920;6.376;2022-11-11T18:17:52;11.20;99.90
10149;DHT22;5115;50.920;6.376;2022-11-11T18:20:18;11.20;99.90
10149;DHT22;5115;50.920;6.376;2022-11-11T18:22:44;11.10;99.90
10149;DHT22;5115;50.920;6.376;2022-11-11T18:25:09;11.10;99.90
10149;DHT22;5115;50.920;6.376;2022-11-11T18:27:35;11.10;99.90
10149;DHT22;5115;50.920;6.376;2022-11-11T18:30:00;11.00;99.90
10149;DHT22;5115;50.920;6.376;2022-11-11T18:32:26;11.00;99.90
10149;DHT22;5115;50.920;6.376;2022-11-11T18:34:51;11.00;99.90
10149;DHT22;5115;50.920;6.376;2022-11-11T18:37:17;10.90;99.90
10149;DHT22;5115;50.920;6.376;2022-11-11T18:42:11;10.80;99.90
10149;DHT22;5115;50.920;6.376;2022-11-11T18:44:36;10.80;99.90
10149;DHT22;5115;50.920;6.376;2022-11-11T18:51:54;10.70;99.90
10149;DHT22;5115;50.920;6.376;2022-11-11T18:54:19;10.70;99.90
10149;DHT22;5115;50.920;6.376;2022-11-11T18:56:45;10.70;99.90
10149;DHT22;5115;50.920;6.376;2022-11-11T18:59:10;10.70;99.90
10149;DHT22;5115;50.920;6.376;2022-11-11T19:01:38;10.70;99.90
10149;DHT22;5115;50.920;6.376;2022-11-11T19:04:06;10.60;99.90
10149;DHT22;5115;50.920;6.376;2022-11-11T19:06:35;10.60;99.90
10149;DHT22;5115;50.920;6.376;2022-11-11T19:09:10;10.60;99.90
10149;DHT22;5115;50.920;6.376;2022-11-11T19:11:37;10.60;99.90
10149;DHT22;5115;50.920;6.376;2022-11-11T19:14:05;10.50;99.90
10149;DHT22;5115;50.920;6.376;2022-11-11T19:18:57;10.50;99.90
10149;DHT22;5115;50.920;6.376;2022-11-11T19:21:25;10.50;99.90
10149;DHT22;5115;50.920;6.376;2022-11-11T19:23:53;10.40;99.90
10149;DHT22;5115;50.920;6.376;2022-11-11T19:26:21;10.40;99.90
10149;DHT22;5115;50.920;6.376;2022-11-11T19:31:18;10.30;99.90
10149;DHT22;5115;50.920;6.376;2022-11-11T19:33:45;10.30;99.90
10149;DHT22;5115;50.920;6.376;2022-11-11T19:36:16;10.20;99.90
10149;DHT22;5115;50.920;6.376;2022-11-11T19:38:44;10.20;99.90
10149;DHT22;5115;50.920;6.376;2022-11-11T19:41:19;10.00;99.90
10149;DHT22;5115;50.920;6.376;2022-11-11T19:43:45;10.00;99.90
10149;DHT22;5115;50.920;6.376;2022-11-11T19:46:13;10.00;99.90
10149;DHT22;5115;50.920;6.376;2022-11-11T19:48:40;10.00;99.90
10149;DHT22;5115;50.920;6.376;2022-11-11T19:51:11;10.00;99.90
10149;DHT22;5115;50.920;6.376;2022-11-11T19:56:05;9.90;99.90
10149;DHT22;5115;50.920;6.376;2022-11-11T19:58:31;9.90;99.90
10149;DHT22;5115;50.920;6.376;2022-11-11T20:00:57;9.80;99.90
10149;DHT22;5115;50.920;6.376;2022-11-11T20:03:30;9.70;99.90
10149;DHT22;5115;50.920;6.376;2022-11-11T20:08:22;9.70;99.90
10149;DHT22;5115;50.920;6.376;2022-11-11T20:10:48;9.70;99.90
10149;DHT22;5115;50.920;6.376;2022-11-11T20:18:05;9.60;99.90
10149;DHT22;5115;50.920;6.376;2022-11-11T20:20:31;9.60;99.90
10149;DHT22;5115;50.920;6.376;2022-11-11T20:22:56;9.50;99.90
10149;DHT22;5115;50.920;6.376;2022-11-11T20:25:22;9.40;99.90
10149;DHT22;5115;50.920;6.376;2022-11-11T20:30:14;9.40;99.90
10149;DHT22;5115;50.920;6.376;2022-11-11T20:32:39;9.40;99.90
10149;DHT22;5115;50.920;6.376;2022-11-11T20:35:06;9.30;99.90
10149;DHT22;5115;50.920;6.376;2022-11-11T20:37:31;9.20;99.90
10149;DHT22;5115;50.920;6.376;2022-11-11T20:44:49;9.10;99.90
10149;DHT22;5115;50.920;6.376;2022-11-11T20:49:41;9.00;99.90
10149;DHT22;5115;50.920;6.376;2022-11-11T20:52:07;8.80;99.90
10149;DHT22;5115;50.920;6.376;2022-11-11T20:54:33;8.70;99.90
10149;DHT22;5115;50.920;6.376;2022-11-11T21:01:52;8.50;99.90
10149;DHT22;5115;50.920;6.376;2022-11-11T21:09:10;8.50;99.90
10149;DHT22;5115;50.920;6.376;2022-11-11T21:16:30;8.50;99.90
10149;DHT22;5115;50.920;6.376;2022-11-11T21:18:57;8.40;99.90
10149;DHT22;5115;50.920;6.376;2022-11-11T21:21:30;8.40;99.90
10149;DHT22;5115;50.920;6.376;2022-11-11T21:24:05;8.40;99.90
10149;DHT22;5115;50.920;6.376;2022-11-11T21:26:33;8.40;99.90
10149;DHT22;5115;50.920;6.376;2022-11-11T21:33:55;8.30;99.90
10149;DHT22;5115;50.920;6.376;2022-11-11T21:36:23;8.30;99.90
10149;DHT22;5115;50.920;6.376;2022-11-11T21:41:16;8.30;99.90
10149;DHT22;5115;50.920;6.376;2022-11-11T21:46:10;8.30;99.90
10149;DHT22;5115;50.920;6.376;2022-11-11T21:48:37;8.90;99.90
10149;DHT22;5115;50.920;6.376;2022-11-11T21:56:07;8.40;99.90
10149;DHT22;5115;50.920;6.376;2022-11-11T22:01:04;8.40;99.90
10149;DHT22;5115;50.920;6.376;2022-11-11T22:06:04;8.40;99.90
10149;DHT22;5115;50.920;6.376;2022-11-11T22:11:10;8.40;99.90
10149;DHT22;5115;50.920;6.376;2022-11-11T22:13:37;8.40;99.90
10149;DHT22;5115;50.920;6.376;2022-11-11T22:16:06;8.40;99.90
10149;DHT22;5115;50.920;6.376;2022-11-11T22:18:32;8.30;99.90
10149;DHT22;5115;50.920;6.376;2022-11-11T22:21:19;8.30;99.90
10149;DHT22;5115;50.920;6.376;2022-11-11T22:23:50;8.20;99.90
10149;DHT22;5115;50.920;6.376;2022-11-11T22:26:17;8.20;99.90
10149;DHT22;5115;50.920;6.376;2022-11-11T22:28:44;8.20;99.90
10149;DHT22;5115;50.920;6.376;2022-11-11T22:31:12;8.20;99.90
10149;DHT22;5115;50.920;6.376;2022-11-11T22:33:40;8.10;99.90
10149;DHT22;5115;50.920;6.376;2022-11-11T22:36:08;8.00;99.90
10149;DHT22;5115;50.920;6.376;2022-11-11T22:38:36;7.90;99.90
10149;DHT22;5115;50.920;6.376;2022-11-11T22:41:10;7.80;99.90
10149;DHT22;5115;50.920;6.376;2022-11-11T22:43:43;7.80;99.90
10149;DHT22;5115;50.920;6.376;2022-11-11T22:46:14;7.80;99.90
10149;DHT22;5115;50.920;6.376;2022-11-11T22:48:41;7.80;99.90
10149;DHT22;5115;50.920;6.376;2022-11-11T22:51:11;7.80;99.90
10149;DHT22;5115;50.920;6.376;2022-11-11T22:53:38;7.70;99.90
10149;DHT22;5115;50.920;6.376;2022-11-11T22:56:06;7.70;99.90
10149;DHT22;5115;50.920;6.376;2022-11-11T22:58:33;7.60;99.90
10149;DHT22;5115;50.920;6.376;2022-11-11T23:05:59;7.50;99.90
10149;DHT22;5115;50.920;6.376;2022-11-11T23:15:55;7.30;99.90
10149;DHT22;5115;50.920;6.376;2022-11-11T23:23:20;7.40;99.90
10149;DHT22;5115;50.920;6.376;2022-11-11T23:25:45;7.30;99.90
10149;DHT22;5115;50.920;6.376;2022-11-11T23:33:03;7.20;99.90
10149;DHT22;5115;50.920;6.376;2022-11-11T23:35:29;7.20;99.90
10149;DHT22;5115;50.920;6.376;2022-11-11T23:40:20;7.20;99.90
10149;DHT22;5115;50.920;6.376;2022-11-11T23:50:04;7.20;99.90
